createdAt,value
2018-06-18T00:00:58.386Z,4.27
2018-06-18T00:03:10.812Z,3.40
2018-06-18T00:05:23.217Z,3.97
2018-06-18T00:07:35.619Z,3.43
2018-06-18T00:09:47.983Z,3.63
2018-06-18T00:12:00.384Z,3.80
2018-06-18T00:14:13.514Z,3.77
2018-06-18T00:16:25.857Z,3.93
2018-06-18T00:18:38.310Z,3.43
2018-06-18T00:20:50.694Z,3.70
2018-06-18T00:23:03.102Z,3.50
2018-06-18T00:25:15.769Z,3.37
2018-06-18T00:27:28.179Z,3.77
2018-06-18T00:29:40.582Z,3.53
2018-06-18T00:31:52.918Z,3.70
2018-06-18T00:34:05.370Z,3.13
2018-06-18T00:36:17.975Z,3.80
2018-06-18T00:38:30.542Z,3.47
2018-06-18T00:40:42.912Z,2.70
2018-06-18T00:42:55.267Z,3.40
2018-06-18T00:45:07.737Z,3.47
2018-06-18T00:47:20.104Z,3.57
2018-06-18T00:49:32.486Z,3.30
2018-06-18T00:51:45.095Z,3.90
2018-06-18T00:53:57.575Z,3.30
2018-06-18T00:56:12.236Z,3.63
2018-06-18T00:58:24.606Z,3.30
2018-06-18T01:00:37.159Z,3.60
2018-06-18T01:02:49.733Z,3.70
2018-06-18T01:05:02.193Z,4.20
2018-06-18T01:07:14.594Z,3.10
2018-06-18T01:09:26.973Z,3.60
2018-06-18T01:11:39.346Z,3.73
2018-06-18T01:13:51.743Z,3.57
2018-06-18T01:16:04.259Z,3.50
2018-06-18T01:18:16.694Z,3.50
2018-06-18T01:20:29.026Z,4.00
2018-06-18T01:22:44.562Z,3.40
2018-06-18T01:25:01.423Z,3.43
2018-06-18T01:27:13.774Z,3.80
2018-06-18T01:29:26.158Z,3.80
2018-06-18T01:31:38.495Z,3.70
2018-06-18T01:33:52.648Z,3.97
2018-06-18T01:36:05.026Z,3.50
2018-06-18T01:38:17.387Z,3.60
2018-06-18T01:40:29.859Z,3.33
2018-06-18T01:42:42.218Z,3.50
2018-06-18T01:44:54.629Z,3.90
2018-06-18T01:47:07.239Z,3.67
2018-06-18T01:49:19.701Z,3.30
2018-06-18T01:51:32.262Z,3.40
2018-06-18T01:53:44.631Z,3.53
2018-06-18T01:55:57.118Z,3.57
2018-06-18T01:58:09.651Z,4.40
2018-06-18T02:00:22.164Z,3.77
2018-06-18T02:02:34.526Z,3.73
2018-06-18T02:04:46.911Z,3.50
2018-06-18T02:06:59.391Z,3.50
2018-06-18T02:09:12.635Z,3.87
2018-06-18T02:11:25.111Z,3.53
2018-06-18T02:13:37.484Z,3.87
2018-06-18T02:15:49.873Z,3.80
2018-06-18T02:18:02.311Z,4.03
2018-06-18T02:20:14.877Z,3.30
2018-06-18T02:22:27.253Z,3.43
2018-06-18T02:24:39.613Z,3.73
2018-06-18T02:26:57.738Z,3.57
2018-06-18T02:29:15.781Z,2.97
2018-06-18T02:31:33.875Z,3.60
2018-06-18T02:33:51.849Z,3.43
2018-06-18T02:36:09.887Z,2.43
2018-06-18T02:38:28.033Z,3.50
2018-06-18T02:40:44.398Z,3.70
2018-06-18T02:42:56.788Z,3.80
2018-06-18T02:45:09.266Z,3.80
2018-06-18T02:47:21.697Z,4.10
2018-06-18T02:49:34.269Z,3.60
2018-06-18T02:51:46.638Z,3.83
2018-06-18T02:53:59.135Z,3.33
2018-06-18T02:56:11.527Z,3.77
2018-06-18T02:58:23.943Z,4.33
2018-06-18T03:00:36.332Z,3.57
2018-06-18T03:02:48.763Z,3.87
2018-06-18T03:05:01.209Z,3.60
2018-06-18T03:07:13.646Z,4.10
2018-06-18T03:09:26.147Z,3.77
2018-06-18T03:11:39.090Z,3.90
2018-06-18T03:13:51.706Z,3.80
2018-06-18T03:16:04.184Z,3.67
2018-06-18T03:18:22.299Z,3.70
2018-06-18T03:20:40.232Z,3.57
2018-06-18T03:22:58.307Z,3.83
2018-06-18T03:25:16.490Z,3.90
2018-06-18T03:27:34.502Z,3.60
2018-06-18T03:29:46.950Z,4.23
2018-06-18T03:32:01.106Z,3.33
2018-06-18T03:34:13.678Z,3.97
2018-06-18T03:36:26.100Z,3.30
2018-06-18T03:38:38.493Z,3.20
2018-06-18T03:40:51.001Z,4.30
2018-06-18T03:43:03.420Z,5.00
2018-06-18T03:45:18.808Z,8.70
2018-06-18T03:47:31.246Z,9.77
2018-06-18T03:49:43.770Z,7.53
2018-06-18T03:51:56.142Z,6.33
2018-06-18T03:54:08.545Z,4.57
2018-06-18T03:56:21.051Z,4.20
2018-06-18T03:58:33.447Z,3.90
2018-06-18T04:01:02.317Z,4.00
2018-06-18T04:03:20.366Z,3.80
2018-06-18T04:05:38.453Z,4.50
2018-06-18T04:07:56.454Z,3.97
2018-06-18T04:10:14.606Z,4.30
2018-06-18T04:12:26.991Z,3.90
2018-06-18T04:14:39.354Z,3.90
2018-06-18T04:16:51.922Z,4.63
2018-06-18T04:19:04.410Z,4.10
2018-06-18T04:21:16.797Z,3.93
2018-06-18T04:23:29.191Z,4.23
2018-06-18T04:25:41.714Z,3.27
2018-06-18T04:27:54.074Z,4.20
2018-06-18T04:30:06.575Z,3.87
2018-06-18T04:32:19.031Z,3.80
2018-06-18T04:34:47.614Z,4.50
2018-06-18T04:37:00.071Z,3.80
2018-06-18T04:39:12.622Z,4.27
2018-06-18T04:41:25.058Z,4.23
2018-06-18T04:43:43.079Z,3.17
2018-06-18T04:46:00.966Z,4.63
2018-06-18T04:48:19.163Z,3.40
2018-06-18T04:50:37.486Z,4.20
2018-06-18T04:52:49.961Z,4.40
2018-06-18T04:55:02.642Z,4.20
2018-06-18T04:57:15.118Z,3.80
2018-06-18T04:59:27.516Z,3.67
2018-06-18T05:01:39.910Z,3.33
2018-06-18T05:03:52.595Z,4.13
2018-06-18T05:06:04.981Z,3.80
2018-06-18T05:08:54.743Z,3.70
2018-06-18T05:11:07.121Z,3.90
2018-06-18T05:13:19.467Z,3.70
2018-06-18T05:15:36.468Z,3.10
2018-06-18T05:17:48.854Z,3.40
2018-06-18T05:20:01.263Z,3.53
2018-06-18T05:22:13.790Z,3.30
2018-06-18T05:24:26.337Z,3.80
2018-06-18T05:26:42.121Z,3.93
2018-06-18T05:28:54.505Z,3.33
2018-06-18T05:31:06.901Z,3.70
2018-06-18T05:33:19.343Z,2.80
2018-06-18T05:35:31.717Z,3.40
2018-06-18T05:38:07.080Z,3.13
2018-06-18T05:40:19.438Z,3.00
2018-06-18T05:42:31.822Z,3.20
2018-06-18T05:44:44.155Z,2.97
2018-06-18T05:46:56.529Z,3.07
2018-06-18T05:49:08.944Z,4.13
2018-06-18T05:51:21.326Z,3.23
2018-06-18T05:53:33.684Z,2.83
2018-06-18T05:55:46.258Z,2.60
2018-06-18T05:57:58.900Z,3.40
2018-06-18T06:00:11.399Z,3.00
2018-06-18T06:02:23.784Z,3.23
2018-06-18T06:04:36.171Z,2.73
2018-06-18T06:06:48.506Z,2.90
2018-06-18T06:09:01.079Z,3.67
2018-06-18T06:11:13.410Z,3.20
2018-06-18T06:13:25.807Z,3.27
2018-06-18T06:15:38.336Z,2.70
2018-06-18T06:17:50.769Z,2.40
2018-06-18T06:20:03.244Z,2.90
2018-06-18T06:22:15.752Z,2.80
2018-06-18T06:24:28.258Z,2.30
2018-06-18T06:26:40.752Z,2.40
2018-06-18T06:28:53.201Z,2.20
2018-06-18T06:31:05.917Z,2.90
2018-06-18T06:33:18.310Z,2.50
2018-06-18T06:35:34.175Z,2.00
2018-06-18T06:37:46.759Z,2.80
2018-06-18T06:39:59.127Z,2.83
2018-06-18T06:42:15.271Z,2.57
2018-06-18T06:44:27.626Z,2.60
2018-06-18T06:46:40.222Z,2.23
2018-06-18T06:48:52.679Z,2.67
2018-06-18T06:51:05.158Z,2.10
2018-06-18T06:53:17.532Z,2.17
2018-06-18T06:55:29.952Z,2.50
2018-06-18T06:57:42.358Z,2.47
2018-06-18T06:59:54.790Z,2.67
2018-06-18T07:02:07.204Z,2.73
2018-06-18T07:04:19.667Z,2.23
2018-06-18T07:06:32.034Z,2.70
2018-06-18T07:08:44.535Z,2.77
2018-06-18T07:10:56.950Z,2.80
2018-06-18T07:13:11.514Z,3.73
2018-06-18T07:15:25.548Z,3.90
2018-06-18T07:17:39.071Z,3.40
2018-06-18T07:19:51.634Z,2.73
2018-06-18T07:22:04.050Z,2.60
2018-06-18T07:24:16.738Z,2.17
2018-06-18T07:26:29.098Z,2.60
2018-06-18T07:28:41.510Z,2.37
2018-06-18T07:30:53.999Z,2.67
2018-06-18T07:33:06.416Z,2.07
2018-06-18T07:35:18.968Z,2.17
2018-06-18T07:37:31.377Z,2.10
2018-06-18T07:39:44.750Z,2.37
2018-06-18T07:41:57.126Z,2.43
2018-06-18T07:44:09.534Z,2.40
2018-06-18T07:46:22.000Z,2.10
2018-06-18T07:48:34.404Z,2.20
2018-06-18T07:50:46.794Z,2.93
2018-06-18T07:52:59.163Z,2.30
2018-06-18T07:55:12.442Z,2.13
2018-06-18T07:57:24.847Z,1.97
2018-06-18T07:59:37.255Z,2.10
2018-06-18T08:01:49.934Z,2.10
2018-06-18T08:04:02.463Z,2.10
2018-06-18T08:06:14.934Z,2.30
2018-06-18T08:08:27.377Z,2.37
2018-06-18T08:10:39.842Z,2.20
2018-06-18T08:12:52.293Z,1.90
2018-06-18T08:15:04.938Z,2.33
2018-06-18T08:17:17.294Z,2.03
2018-06-18T08:19:29.647Z,16.73
2018-06-18T08:21:42.050Z,2.23
2018-06-18T08:23:54.437Z,2.10
2018-06-18T08:26:06.978Z,2.00
2018-06-18T08:28:19.386Z,2.13
2018-06-18T08:30:31.798Z,1.90
2018-06-18T08:32:44.207Z,2.20
2018-06-18T08:34:56.701Z,2.07
2018-06-18T08:37:09.171Z,2.23
2018-06-18T08:39:22.494Z,2.27
2018-06-18T08:41:35.217Z,2.30
2018-06-18T08:43:47.610Z,2.30
2018-06-18T08:46:00.037Z,2.27
2018-06-18T08:48:17.023Z,2.20
2018-06-18T08:50:35.040Z,2.20
2018-06-18T08:52:53.042Z,2.53
2018-06-18T08:55:11.069Z,2.03
2018-06-18T08:57:29.022Z,2.40
2018-06-18T08:59:47.095Z,2.07
2018-06-18T09:01:59.513Z,2.33
2018-06-18T09:04:16.054Z,2.10
2018-06-18T09:06:28.511Z,1.90
2018-06-18T09:08:46.550Z,1.87
2018-06-18T09:10:59.639Z,2.20
2018-06-18T09:13:12.118Z,1.87
2018-06-18T09:15:24.522Z,2.53
2018-06-18T09:17:37.125Z,2.77
2018-06-18T09:19:49.556Z,2.83
2018-06-18T09:22:02.034Z,2.20
2018-06-18T09:24:14.500Z,1.90
2018-06-18T09:26:26.950Z,2.60
2018-06-18T09:28:39.346Z,2.30
2018-06-18T09:30:51.908Z,2.50
2018-06-18T09:33:04.467Z,2.03
2018-06-18T09:35:16.946Z,2.30
2018-06-18T09:37:29.338Z,2.37
2018-06-18T09:39:41.815Z,2.23
2018-06-18T09:41:54.336Z,2.30
2018-06-18T09:44:06.699Z,2.17
2018-06-18T09:46:19.137Z,2.60
2018-06-18T09:48:37.015Z,2.40
2018-06-18T09:50:54.915Z,2.13
2018-06-18T09:53:13.878Z,2.20
2018-06-18T09:55:31.742Z,2.20
2018-06-18T09:57:49.701Z,2.20
2018-06-18T10:00:08.245Z,2.40
2018-06-18T10:02:20.777Z,2.60
2018-06-18T10:04:33.157Z,2.77
2018-06-18T10:06:46.139Z,2.20
2018-06-18T10:09:03.803Z,2.10
2018-06-18T10:11:16.157Z,2.30
2018-06-18T10:13:28.832Z,2.20
2018-06-18T10:15:41.167Z,2.10
2018-06-18T10:17:53.920Z,2.20
2018-06-18T10:20:06.506Z,2.40
2018-06-18T10:22:19.091Z,2.57
2018-06-18T10:24:31.739Z,1.70
2018-06-18T10:26:44.005Z,2.10
2018-06-18T10:28:57.210Z,1.70
2018-06-18T10:31:09.624Z,1.90
2018-06-18T10:33:27.572Z,1.90
2018-06-18T10:35:45.590Z,2.10
2018-06-18T10:38:04.243Z,2.03
2018-06-18T10:40:22.193Z,2.03
2018-06-18T10:42:40.076Z,2.10
2018-06-18T10:44:52.474Z,2.00
2018-06-18T10:47:04.897Z,1.93
2018-06-18T10:49:17.375Z,2.30
2018-06-18T10:51:29.750Z,2.33
2018-06-18T10:53:42.151Z,1.73
2018-06-18T10:55:54.677Z,1.87
2018-06-18T10:58:07.003Z,1.90
2018-06-18T11:00:23.392Z,1.70
2018-06-18T11:02:35.811Z,2.07
2018-06-18T11:04:53.767Z,2.30
2018-06-18T11:07:06.189Z,2.23
2018-06-18T11:09:19.663Z,2.27
2018-06-18T11:11:32.134Z,2.40
2018-06-18T11:13:44.591Z,2.30
2018-06-18T11:15:57.170Z,1.87
2018-06-18T11:18:15.106Z,1.73
2018-06-18T11:20:33.109Z,2.23
2018-06-18T11:22:51.138Z,2.00
2018-06-18T11:25:09.132Z,1.80
2018-06-18T11:27:21.514Z,1.87
2018-06-18T11:29:33.930Z,2.20
2018-06-18T11:31:46.368Z,2.00
2018-06-18T11:33:58.740Z,2.40
2018-06-18T11:36:11.251Z,2.17
2018-06-18T11:38:23.649Z,2.53
2018-06-18T11:40:36.078Z,2.40
2018-06-18T11:42:48.393Z,2.03
2018-06-18T11:45:00.786Z,2.00
2018-06-18T11:47:13.228Z,2.00
2018-06-18T11:49:25.743Z,2.20
2018-06-18T11:51:38.195Z,2.00
2018-06-18T11:53:50.595Z,2.00
2018-06-18T11:56:03.270Z,2.00
2018-06-18T11:58:21.364Z,1.80
2018-06-18T12:00:39.674Z,2.20
2018-06-18T12:02:59.792Z,2.47
2018-06-18T12:05:17.849Z,1.97
2018-06-18T12:07:36.036Z,2.70
2018-06-18T12:09:49.625Z,2.33
2018-06-18T12:12:01.942Z,1.90
2018-06-18T12:14:15.099Z,2.20
2018-06-18T12:16:27.539Z,2.80
2018-06-18T12:18:40.150Z,1.97
2018-06-18T12:20:52.594Z,2.23
2018-06-18T12:23:05.162Z,1.83
2018-06-18T12:25:17.550Z,2.13
2018-06-18T12:27:31.863Z,1.90
2018-06-18T12:29:44.330Z,2.10
2018-06-18T12:31:56.696Z,1.60
2018-06-18T12:34:09.238Z,2.17
2018-06-18T12:36:21.677Z,2.37
2018-06-18T12:38:34.275Z,2.13
2018-06-18T12:40:46.830Z,1.80
2018-06-18T12:42:59.251Z,2.07
2018-06-18T12:45:18.787Z,2.10
2018-06-18T12:47:36.991Z,2.17
2018-06-18T12:49:54.938Z,2.03
2018-06-18T12:52:13.203Z,2.23
2018-06-18T12:54:31.139Z,2.37
2018-06-18T12:57:05.806Z,2.67
2018-06-18T12:59:18.294Z,2.00
2018-06-18T13:01:33.119Z,2.80
2018-06-18T13:03:45.640Z,2.30
2018-06-18T13:05:58.130Z,2.43
2018-06-18T13:08:10.632Z,2.33
2018-06-18T13:10:22.962Z,2.30
2018-06-18T13:12:35.401Z,3.13
2018-06-18T13:14:47.805Z,2.43
2018-06-18T13:17:00.266Z,2.77
2018-06-18T13:19:12.761Z,2.57
2018-06-18T13:21:25.483Z,1.97
2018-06-18T13:23:38.018Z,2.43
2018-06-18T13:25:50.387Z,2.30
2018-06-18T13:28:08.387Z,2.00
2018-06-18T13:30:20.874Z,2.37
2018-06-18T13:32:33.373Z,1.83
2018-06-18T13:34:45.838Z,2.13
2018-06-18T13:37:03.891Z,2.27
2018-06-18T13:39:21.765Z,2.30
2018-06-18T13:41:39.765Z,2.20
2018-06-18T13:43:57.879Z,2.00
2018-06-18T13:46:15.991Z,2.37
2018-06-18T13:48:33.987Z,2.17
2018-06-18T13:50:46.430Z,2.17
2018-06-18T13:52:58.789Z,2.10
2018-06-18T13:55:11.207Z,2.10
2018-06-18T13:57:24.086Z,2.50
2018-06-18T13:59:36.587Z,1.97
2018-06-18T14:01:49.032Z,2.57
2018-06-18T14:04:01.433Z,2.60
2018-06-18T14:06:13.903Z,2.27
2018-06-18T14:08:26.294Z,2.23
2018-06-18T14:10:38.738Z,2.40
2018-06-18T14:12:51.115Z,2.70
2018-06-18T14:15:03.559Z,2.70
2018-06-18T14:17:16.131Z,2.10
2018-06-18T14:19:34.110Z,2.00
2018-06-18T14:21:46.694Z,2.10
2018-06-18T14:23:59.046Z,2.40
2018-06-18T14:26:11.489Z,2.63
2018-06-18T14:28:23.934Z,2.20
2018-06-18T14:30:42.027Z,2.47
2018-06-18T14:32:59.956Z,2.23
2018-06-18T14:35:18.127Z,2.40
2018-06-18T14:37:36.119Z,2.43
2018-06-18T14:39:52.667Z,2.60
2018-06-18T14:42:06.444Z,2.50
2018-06-18T14:44:18.771Z,2.30
2018-06-18T14:46:31.231Z,2.40
2018-06-18T14:48:43.631Z,2.13
2018-06-18T14:50:56.018Z,1.90
2018-06-18T14:53:08.523Z,2.17
2018-06-18T14:55:20.986Z,2.30
2018-06-18T14:57:33.417Z,2.07
2018-06-18T14:59:52.850Z,2.57
2018-06-18T15:02:05.335Z,2.40
2018-06-18T15:04:17.724Z,2.03
2018-06-18T15:06:30.107Z,2.30
2018-06-18T15:08:42.495Z,2.27
2018-06-18T15:10:54.918Z,2.13
2018-06-18T15:13:09.354Z,2.47
2018-06-18T15:15:27.297Z,2.50
2018-06-18T15:17:39.714Z,2.00
2018-06-18T15:19:52.098Z,2.27
2018-06-18T15:22:04.483Z,2.47
2018-06-18T15:24:28.605Z,2.27
2018-06-18T15:26:41.070Z,2.07
2018-06-18T15:28:53.434Z,2.30
2018-06-18T15:31:05.900Z,2.10
2018-06-18T15:33:18.326Z,2.30
2018-06-18T15:35:30.899Z,2.07
2018-06-18T15:37:43.316Z,2.50
2018-06-18T15:39:55.650Z,2.37
2018-06-18T15:42:08.095Z,2.30
2018-06-18T15:44:20.549Z,2.17
2018-06-18T15:46:33.029Z,2.10
2018-06-18T15:48:45.409Z,1.83
2018-06-18T15:50:57.806Z,2.60
2018-06-18T15:53:10.121Z,2.30
2018-06-18T15:55:22.564Z,2.70
2018-06-18T15:57:35.000Z,2.40
2018-06-18T15:59:47.402Z,2.57
2018-06-18T16:01:59.798Z,2.20
2018-06-18T16:04:12.219Z,2.10
2018-06-18T16:06:24.670Z,2.10
2018-06-18T16:08:37.147Z,2.60
2018-06-18T16:10:49.627Z,2.37
2018-06-18T16:13:02.064Z,2.30
2018-06-18T16:15:14.536Z,2.00
2018-06-18T16:17:26.889Z,2.20
2018-06-18T16:19:39.331Z,2.47
2018-06-18T16:21:51.693Z,2.10
2018-06-18T16:24:04.134Z,2.23
2018-06-18T16:26:16.748Z,2.10
2018-06-18T16:28:29.129Z,2.17
2018-06-18T16:30:41.533Z,2.30
2018-06-18T16:32:53.921Z,2.03
2018-06-18T16:35:06.356Z,2.30
2018-06-18T16:37:18.802Z,2.20
2018-06-18T16:39:32.190Z,2.20
2018-06-18T16:41:44.623Z,2.43
2018-06-18T16:43:56.991Z,2.40
2018-06-18T16:46:09.381Z,2.43
2018-06-18T16:48:21.814Z,2.40
2018-06-18T16:50:34.146Z,2.37
2018-06-18T16:52:46.518Z,2.40
2018-06-18T16:54:58.891Z,2.60
2018-06-18T16:57:11.334Z,2.67
2018-06-18T16:59:23.710Z,2.20
2018-06-18T17:01:36.090Z,2.53
2018-06-18T17:03:49.344Z,2.20
2018-06-18T17:06:01.794Z,2.90
2018-06-18T17:08:14.135Z,2.60
2018-06-18T17:10:26.598Z,2.60
2018-06-18T17:12:39.114Z,2.60
2018-06-18T17:14:51.921Z,2.60
2018-06-18T17:17:04.415Z,2.60
2018-06-18T17:19:16.822Z,2.77
2018-06-18T17:21:29.311Z,2.80
2018-06-18T17:23:41.734Z,2.60
2018-06-18T17:25:54.103Z,2.70
2018-06-18T17:28:06.748Z,2.97
2018-06-18T17:30:19.943Z,2.70
2018-06-18T17:32:32.430Z,2.80
2018-06-18T17:34:44.922Z,2.70
2018-06-18T17:36:57.471Z,2.73
2018-06-18T17:39:11.507Z,2.80
2018-06-18T17:41:23.903Z,2.70
2018-06-18T17:43:36.361Z,2.63
2018-06-18T17:45:48.822Z,2.50
2018-06-18T17:48:01.366Z,2.27
2018-06-18T17:50:13.675Z,2.50
2018-06-18T17:52:26.058Z,2.80
2018-06-18T17:54:38.474Z,2.70
2018-06-18T17:56:51.010Z,2.60
2018-06-18T17:59:03.517Z,2.80
2018-06-18T18:01:15.987Z,2.63
2018-06-18T18:03:28.664Z,2.50
2018-06-18T18:05:41.168Z,2.77
2018-06-18T18:07:53.602Z,2.27
2018-06-18T18:10:06.125Z,2.90
2018-06-18T18:12:18.541Z,2.90
2018-06-18T18:14:31.158Z,2.63
2018-06-18T18:16:43.549Z,2.60
2018-06-18T18:18:56.012Z,2.57
2018-06-18T18:21:08.364Z,2.63
2018-06-18T18:23:20.810Z,2.50
2018-06-18T18:25:33.159Z,2.50
2018-06-18T18:27:45.680Z,2.77
2018-06-18T18:29:58.079Z,3.03
2018-06-18T18:32:10.474Z,2.80
2018-06-18T18:34:23.029Z,2.97
2018-06-18T18:36:35.456Z,3.03
2018-06-18T18:38:47.878Z,2.87
2018-06-18T18:41:00.495Z,2.57
2018-06-18T18:43:12.886Z,2.93
2018-06-18T18:45:25.249Z,2.80
2018-06-18T18:47:37.565Z,2.70
2018-06-18T18:49:49.945Z,2.30
2018-06-18T18:52:02.307Z,2.87
2018-06-18T18:55:27.594Z,3.30
2018-06-18T18:57:51.346Z,3.13
2018-06-18T19:00:03.866Z,2.80
2018-06-18T19:02:16.233Z,3.37
2018-06-18T19:04:33.114Z,3.20
2018-06-18T19:06:45.655Z,3.00
2018-06-18T19:08:58.090Z,3.47
2018-06-18T19:11:10.533Z,3.20
2018-06-18T19:13:25.518Z,3.07
2018-06-18T19:15:38.228Z,3.70
2018-06-18T19:17:50.873Z,3.27
2018-06-18T19:20:07.427Z,3.10
2018-06-18T19:22:19.852Z,3.47
2018-06-18T19:24:32.286Z,3.03
2018-06-18T19:26:44.755Z,3.47
2018-06-18T19:28:57.259Z,2.47
2018-06-18T19:31:13.134Z,3.07
2018-06-18T19:33:31.814Z,3.67
2018-06-18T19:35:44.304Z,4.07
2018-06-18T19:37:56.795Z,4.30
2018-06-18T19:40:09.178Z,5.57
2018-06-18T19:42:21.618Z,6.13
2018-06-18T19:44:34.114Z,6.10
2018-06-18T19:47:24.782Z,6.83
2018-06-18T19:49:37.126Z,5.07
2018-06-18T19:51:49.451Z,4.40
2018-06-18T19:54:01.881Z,3.80
2018-06-18T19:56:14.299Z,3.47
2018-06-18T19:58:26.647Z,3.80
2018-06-18T20:00:42.653Z,3.90
2018-06-18T20:02:55.404Z,3.77
2018-06-18T20:05:12.965Z,3.60
2018-06-18T20:07:26.070Z,3.97
2018-06-18T20:09:38.575Z,3.73
2018-06-18T20:11:50.991Z,3.83
2018-06-18T20:14:03.531Z,4.00
2018-06-18T20:16:15.997Z,3.60
2018-06-18T20:18:28.435Z,3.83
2018-06-18T20:20:40.822Z,3.73
2018-06-18T20:22:53.275Z,4.13
2018-06-18T20:25:06.303Z,4.07
2018-06-18T20:27:18.693Z,3.20
2018-06-18T20:29:31.215Z,3.97
2018-06-18T20:31:45.380Z,3.73
2018-06-18T20:33:58.065Z,4.10
2018-06-18T20:36:12.248Z,3.70
2018-06-18T20:38:24.647Z,3.80
2018-06-18T20:40:37.050Z,3.13
2018-06-18T20:42:49.713Z,3.50
2018-06-18T20:45:02.127Z,3.90
2018-06-18T20:47:14.548Z,4.00
2018-06-18T20:49:27.034Z,3.77
2018-06-18T20:51:39.754Z,3.87
2018-06-18T20:53:52.180Z,3.53
2018-06-18T20:56:04.777Z,3.60
2018-06-18T20:58:17.186Z,3.90
2018-06-18T21:00:29.606Z,4.10
2018-06-18T21:02:42.108Z,3.73
2018-06-18T21:04:54.584Z,3.67
2018-06-18T21:07:07.013Z,3.80
2018-06-18T21:09:19.414Z,3.93
2018-06-18T21:11:31.835Z,5.13
2018-06-18T21:13:44.214Z,5.67
2018-06-18T21:15:56.616Z,3.60
2018-06-18T21:18:09.067Z,3.73
2018-06-18T21:20:21.644Z,3.67
2018-06-18T21:22:34.204Z,4.07
2018-06-18T21:24:46.610Z,3.63
2018-06-18T21:26:59.037Z,4.07
2018-06-18T21:29:11.438Z,3.67
2018-06-18T21:31:23.850Z,3.77
2018-06-18T21:33:36.708Z,3.40
2018-06-18T21:35:49.191Z,3.23
2018-06-18T21:38:01.665Z,3.17
2018-06-18T21:40:14.075Z,3.33
2018-06-18T21:42:26.495Z,3.27
2018-06-18T21:45:13.731Z,4.00
2018-06-18T21:47:26.154Z,3.77
2018-06-18T21:49:38.511Z,3.80
2018-06-18T21:51:51.622Z,3.03
2018-06-18T21:54:04.067Z,3.33
2018-06-18T21:56:16.482Z,3.40
2018-06-18T21:58:28.974Z,3.43
2018-06-18T22:00:46.838Z,3.40
2018-06-18T22:02:59.281Z,3.37
2018-06-18T22:05:11.668Z,3.50
2018-06-18T22:07:24.039Z,3.40
2018-06-18T22:09:36.450Z,3.50
2018-06-18T22:11:52.052Z,3.73
2018-06-18T22:14:04.558Z,3.20
2018-06-18T22:16:16.963Z,3.43
2018-06-18T22:18:29.322Z,3.10
2018-06-18T22:20:42.022Z,3.23
2018-06-18T22:22:54.425Z,3.50
2018-06-18T22:25:06.836Z,3.30
2018-06-18T22:27:19.211Z,3.23
2018-06-18T22:29:31.770Z,3.23
2018-06-18T22:31:44.242Z,3.37
2018-06-18T22:33:56.731Z,3.97
2018-06-18T22:36:09.198Z,3.80
2018-06-18T22:38:21.648Z,3.60
2018-06-18T22:40:33.993Z,3.70
2018-06-18T22:42:46.414Z,3.87
2018-06-18T22:44:58.838Z,3.20
2018-06-18T22:47:11.334Z,3.70
2018-06-18T22:49:23.819Z,3.47
2018-06-18T22:51:36.262Z,3.43
2018-06-18T22:53:48.698Z,3.53
2018-06-18T22:56:01.184Z,3.30
2018-06-18T22:58:13.710Z,3.67
2018-06-18T23:00:26.107Z,3.57
2018-06-18T23:02:38.490Z,3.87
2018-06-18T23:04:51.015Z,3.90
2018-06-18T23:07:04.276Z,3.83
2018-06-18T23:09:16.687Z,3.77
2018-06-18T23:11:29.105Z,4.07
2018-06-18T23:13:41.533Z,3.70
2018-06-18T23:15:53.978Z,4.17
2018-06-18T23:18:06.413Z,4.03
2018-06-18T23:20:18.774Z,3.07
2018-06-18T23:22:31.167Z,3.53
2018-06-18T23:24:43.598Z,3.87
2018-06-18T23:26:56.070Z,4.67
2018-06-18T23:29:10.679Z,4.27
2018-06-18T23:31:23.152Z,4.00
2018-06-18T23:33:35.601Z,3.87
2018-06-18T23:35:48.105Z,3.73
2018-06-18T23:38:00.613Z,4.00
2018-06-18T23:40:13.074Z,4.07
2018-06-18T23:42:25.454Z,4.57
2018-06-18T23:44:37.943Z,4.53
2018-06-18T23:46:50.363Z,4.20
2018-06-18T23:49:02.810Z,3.73
2018-06-18T23:51:15.318Z,4.47
2018-06-18T23:53:27.889Z,3.90
2018-06-18T23:55:40.315Z,4.27
2018-06-18T23:57:52.724Z,3.60
